Time;durP1;ratioP1;P1;durP2;ratioP2;P2;SDS_P1;SDS_P2;PMS_P1;PMS_P2;Temp;Humidity;BMP_temperature;BMP_pressure;BME280_temperature;BME280_humidity;BME280_pressure;Samples;Min_cycle;Max_cycle;Signal;HPM_P1;HPM_P2
2024/01/07 00:01:38;;;;;;;0.00;0.00;;;;;;;-145.06;93.29;54949.66;10454479;28;20024;-72
2024/01/07 00:06:38;;;;;;;0.10;0.10;;;;;;;-145.06;93.80;54937.50;10455586;28;20036;-71
2024/01/07 00:11:40;;;;;;;0.00;0.00;;;;;;;-145.06;94.33;54945.59;10437251;28;20017;-71
2024/01/07 00:16:40;;;;;;;0.10;0.10;;;;;;;-145.06;93.54;54937.50;10455144;28;20017;-71
2024/01/07 00:21:40;;;;;;;0.08;0.08;;;;;;;-145.06;93.88;54978.03;10455253;28;20021;-71
2024/01/07 00:26:41;;;;;;;0.00;0.00;;;;;;;-145.06;94.04;54957.75;10452428;28;20048;-71
2024/01/07 00:31:41;;;;;;;0.00;0.00;;;;;;;-145.06;93.98;54973.97;10452162;28;20268;-72
2024/01/07 00:36:41;;;;;;;0.00;0.00;;;;;;;-145.06;94.11;54982.06;10453787;28;20024;-71
2024/01/07 00:41:42;;;;;;;0.10;0.10;;;;;;;-145.06;95.27;54986.13;10453824;28;20025;-71
2024/01/07 00:46:42;;;;;;;0.10;0.10;;;;;;;-145.06;95.18;54959.78;10454928;28;20032;-69
2024/01/07 00:51:42;;;;;;;0.10;0.10;;;;;;;-145.06;93.30;54965.88;10451887;28;20032;-71
2024/01/07 00:56:43;;;;;;;0.10;0.10;;;;;;;-145.06;92.99;54986.13;10452715;28;20469;-71
2024/01/07 01:01:43;;;;;;;0.10;0.10;;;;;;;-145.06;93.83;54963.84;10452406;28;20405;-71
2024/01/07 01:06:44;;;;;;;0.10;0.10;;;;;;;-145.06;94.51;54994.22;10453403;28;20437;-71
2024/01/07 01:11:44;;;;;;;0.10;0.10;;;;;;;-145.06;94.51;54988.16;10452712;28;20024;-71
2024/01/07 01:16:44;;;;;;;0.00;0.00;;;;;;;-145.06;94.17;55000.31;10453726;28;20678;-71
2024/01/07 01:21:45;;;;;;;0.10;0.10;;;;;;;-145.06;94.95;54988.16;10454559;28;20044;-71
2024/01/07 01:26:45;;;;;;;0.00;0.00;;;;;;;-145.06;95.23;54986.13;10451412;28;20799;-71
2024/01/07 01:31:45;;;;;;;0.10;0.10;;;;;;;-145.06;95.43;55016.50;10451192;28;20051;-71
2024/01/07 01:36:45;;;;;;;0.17;0.17;;;;;;;-145.06;95.45;54990.19;10433012;28;20035;-71
2024/01/07 01:41:46;;;;;;;0.10;0.10;;;;;;;-145.06;95.74;54976.00;10452055;28;20040;-71
2024/01/07 01:46:47;;;;;;;0.10;0.10;;;;;;;-145.06;96.53;54994.22;10452192;28;20021;-71
2024/01/07 01:51:49;;;;;;;0.10;0.10;;;;;;;-145.06;95.57;54994.22;10450049;28;20260;-71
2024/01/07 01:56:50;;;;;;;0.10;0.10;;;;;;;-145.06;95.84;54990.19;10450222;28;20021;-71
2024/01/07 02:01:50;;;;;;;0.10;0.10;;;;;;;-145.06;95.57;54980.03;10450470;28;20085;-72
2024/01/07 02:06:51;;;;;;;0.10;0.10;;;;;;;-145.06;96.14;54959.78;10449629;28;20029;-71
2024/01/07 02:12:01;;;;;;;0.10;0.10;;;;;;;-145.06;96.22;54957.75;10449428;28;20106;-71
2024/01/07 02:17:01;;;;;;;0.10;0.10;;;;;;;-145.06;96.39;54965.88;10454338;28;20485;-71
2024/01/07 02:22:01;;;;;;;0.17;0.17;;;;;;;-145.06;95.17;54953.72;10451819;28;20020;-71
2024/01/07 02:27:02;;;;;;;0.10;0.10;;;;;;;-145.06;95.51;54973.97;10448485;28;20399;-72
2024/01/07 02:32:03;;;;;;;0.10;0.10;;;;;;;-145.06;95.46;54959.78;10428483;28;20278;-71
2024/01/07 02:37:03;;;;;;;0.10;0.10;;;;;;;-145.06;94.32;54937.50;10450010;28;20071;-72
2024/01/07 02:42:04;;;;;;;0.10;0.10;;;;;;;-145.06;94.51;54963.84;10449042;28;20035;-71
2024/01/07 02:47:04;;;;;;;0.10;0.10;;;;;;;-145.06;94.36;54937.50;10432274;28;20612;-71
2024/01/07 02:52:05;;;;;;;0.10;0.10;;;;;;;-145.06;93.56;54941.56;10448372;28;20504;-71
2024/01/07 02:57:05;;;;;;;0.10;0.10;;;;;;;-145.06;92.30;54945.59;10451208;28;20268;-72
2024/01/07 03:02:05;;;;;;;0.10;0.10;;;;;;;-145.06;93.88;54915.22;10451247;28;20028;-71
2024/01/07 03:07:05;;;;;;;0.00;0.00;;;;;;;-145.06;92.77;54933.44;10451339;28;20044;-72
2024/01/07 03:12:06;;;;;;;0.10;0.10;;;;;;;-145.06;93.14;54937.50;10451348;28;20024;-71
2024/01/07 03:17:07;;;;;;;0.10;0.10;;;;;;;-145.06;92.48;54913.19;10451494;28;20060;-71
2024/01/07 03:22:07;;;;;;;0.10;0.10;;;;;;;-145.06;91.49;54923.31;10455992;28;20029;-71
2024/01/07 03:27:08;;;;;;;0.10;0.10;;;;;;;-145.06;90.80;54927.38;10459570;28;20027;-72
2024/01/07 03:32:08;;;;;;;0.10;0.10;;;;;;;-145.06;91.69;54933.44;10459992;28;20111;-71
2024/01/07 03:37:08;;;;;;;0.20;0.20;;;;;;;-145.06;91.30;54915.22;10461394;28;20260;-71
2024/01/07 03:42:11;;;;;;;0.10;0.10;;;;;;;-145.06;92.20;54917.25;10458182;28;20017;-71
2024/01/07 03:47:11;;;;;;;0.00;0.00;;;;;;;-145.06;92.13;54939.53;10457919;28;20773;-71
2024/01/07 03:52:12;;;;;;;0.10;0.10;;;;;;;-145.06;93.69;54931.44;10456029;28;20024;-71
2024/01/07 03:57:13;;;;;;;0.10;0.10;;;;;;;-145.06;92.39;54919.28;10458720;28;20020;-71
2024/01/07 04:02:16;;;;;;;0.20;0.20;;;;;;;-145.06;93.95;54903.06;10454555;28;20487;-71
2024/01/07 04:07:16;;;;;;;0.10;0.10;;;;;;;-145.06;93.89;54925.34;10459761;28;20171;-71
2024/01/07 04:12:16;;;;;;;0.20;0.20;;;;;;;-145.06;93.42;54905.09;10456984;28;20028;-71
2024/01/07 04:17:17;;;;;;;0.10;0.10;;;;;;;-145.06;93.19;54925.34;10438985;28;20025;-71
2024/01/07 04:22:17;;;;;;;0.00;0.00;;;;;;;-145.06;93.01;54907.13;10456578;28;20082;-71
2024/01/07 04:27:17;;;;;;;0.10;0.10;;;;;;;-145.06;93.51;54921.28;10449997;28;20291;-71
2024/01/07 04:32:18;;;;;;;0.10;0.10;;;;;;;-145.06;93.37;54901.03;10451689;28;20482;-71
2024/01/07 04:37:18;;;;;;;0.10;0.10;;;;;;;-145.06;93.56;54911.16;10452174;28;20267;-71
2024/01/07 04:42:18;;;;;;;0.10;0.10;;;;;;;-145.06;94.80;54915.22;10453125;28;20267;-71
2024/01/07 04:47:29;;;;;;;0.10;0.10;;;;;;;-145.06;94.85;54913.19;10451119;28;20024;-71
2024/01/07 04:52:29;;;;;;;0.10;0.10;;;;;;;-145.06;95.20;54941.56;10452026;28;20502;-70
2024/01/07 04:57:29;;;;;;;0.00;0.00;;;;;;;-145.06;95.25;54917.25;10451015;28;20021;-71
2024/01/07 05:02:30;;;;;;;0.00;0.00;;;;;;;-145.06;96.20;54931.44;10453061;28;20255;-70
2024/01/07 05:07:30;;;;;;;0.10;0.10;;;;;;;-145.06;96.38;54927.38;10450545;28;20028;-71
2024/01/07 05:12:30;;;;;;;0.10;0.10;;;;;;;-145.06;96.85;54905.09;10451397;28;20033;-71
2024/01/07 05:17:31;;;;;;;0.10;0.10;;;;;;;-145.06;97.39;54915.22;10451692;28;20733;-71
2024/01/07 05:22:31;;;;;;;0.05;0.05;;;;;;;-145.06;96.96;54899.00;10451067;28;20259;-71
2024/01/07 05:27:31;;;;;;;0.10;0.10;;;;;;;-145.06;96.64;54921.28;10451389;28;20024;-71
2024/01/07 05:32:32;;;;;;;0.00;0.00;;;;;;;-145.06;96.46;54913.19;10452041;28;20033;-71
2024/01/07 05:37:32;;;;;;;0.08;0.08;;;;;;;-145.06;97.61;54886.88;10449598;28;20765;-71
2024/01/07 05:42:32;;;;;;;0.00;0.00;;;;;;;-145.06;97.86;54935.47;10448673;28;20016;-71
2024/01/07 05:47:33;;;;;;;0.00;0.00;;;;;;;-145.06;98.02;54939.53;10450408;28;20021;-71
2024/01/07 05:52:33;;;;;;;0.00;0.00;;;;;;;-145.06;98.30;54899.00;10449414;28;20025;-71
2024/01/07 05:57:34;;;;;;;0.00;0.00;;;;;;;-145.06;98.53;54907.13;10448804;28;20092;-71
2024/01/07 06:02:34;;;;;;;0.00;0.00;;;;;;;-145.06;99.28;54923.31;10449612;28;20021;-71
2024/01/07 06:07:35;;;;;;;0.03;0.03;;;;;;;-145.06;100.00;54892.94;10448365;28;20052;-71
2024/01/07 06:12:35;;;;;;;0.00;0.00;;;;;;;-145.06;99.97;54913.19;10449053;28;20428;-71
2024/01/07 06:17:35;;;;;;;0.10;0.10;;;;;;;-145.06;100.00;54907.13;10445296;28;20044;-71
2024/01/07 06:22:35;;;;;;;0.00;0.00;;;;;;;-145.06;100.00;54892.94;10448209;28;20052;-71
2024/01/07 06:27:37;;;;;;;0.00;0.00;;;;;;;-145.06;100.00;54878.75;10447864;28;20078;-70
2024/01/07 06:32:38;;;;;;;0.10;0.10;;;;;;;-145.06;100.00;54901.03;10448202;28;20485;-71
2024/01/07 06:37:38;;;;;;;0.00;0.00;;;;;;;-145.06;100.00;54890.91;10448276;28;20013;-71
2024/01/07 06:42:39;;;;;;;0.00;0.00;;;;;;;-145.06;100.00;54923.31;10451403;28;20024;-71
2024/01/07 06:47:39;;;;;;;0.00;0.00;;;;;;;-145.06;100.00;54909.16;10447878;28;20021;-71
2024/01/07 06:52:40;;;;;;;0.00;0.00;;;;;;;-145.06;100.00;54892.94;10449851;28;20032;-71
2024/01/07 06:57:40;;;;;;;0.05;0.05;;;;;;;-145.06;100.00;54921.28;10455794;28;20151;-71
2024/01/07 07:02:40;;;;;;;0.10;0.10;;;;;;;-145.06;100.00;54921.28;10438797;28;20206;-71
2024/01/07 07:07:41;;;;;;;0.00;0.00;;;;;;;-145.06;100.00;54927.38;10454994;28;20332;-71
2024/01/07 07:12:41;;;;;;;0.00;0.00;;;;;;;-145.06;100.00;54927.38;10454428;28;20032;-71
2024/01/07 07:17:41;;;;;;;0.00;0.00;;;;;;;-145.06;100.00;54921.28;10453177;28;20271;-71
2024/01/07 07:22:42;;;;;;;0.10;0.10;;;;;;;-145.06;100.00;54943.59;10455533;28;20264;-71
2024/01/07 07:27:43;;;;;;;0.10;0.10;;;;;;;-145.06;100.00;54947.63;10455580;28;20279;-70
2024/01/07 07:32:44;;;;;;;0.05;0.05;;;;;;;-145.06;100.00;54961.81;10455158;28;20025;-71
2024/01/07 07:37:44;;;;;;;0.08;0.08;;;;;;;-145.06;100.00;54937.50;10457131;28;20017;-71
2024/01/07 07:42:44;;;;;;;0.10;0.10;;;;;;;-145.06;100.00;54959.78;10455095;28;20021;-71
2024/01/07 07:47:45;;;;;;;0.10;0.10;;;;;;;-145.06;100.00;54911.16;10454102;28;20025;-70
2024/01/07 07:52:45;;;;;;;0.08;0.08;;;;;;;-145.06;100.00;54949.66;10455840;28;20298;-70
2024/01/07 07:57:46;;;;;;;0.00;0.00;;;;;;;-145.06;100.00;54945.59;10454559;28;20385;-71
2024/01/07 08:02:46;;;;;;;0.10;0.10;;;;;;;-145.06;100.00;54943.59;10454458;28;20020;-70
2024/01/07 08:07:46;;;;;;;0.00;0.00;;;;;;;-145.06;100.00;54935.47;10452843;28;20044;-71
2024/01/07 08:12:47;;;;;;;0.10;0.10;;;;;;;-145.06;100.00;54953.72;10453494;28;20772;-71
2024/01/07 08:17:47;;;;;;;0.00;0.00;;;;;;;-145.06;100.00;54884.84;10453780;28;20379;-71
2024/01/07 08:22:48;;;;;;;0.00;0.00;;;;;;;-145.06;100.00;54884.84;10454063;28;20028;-71
2024/01/07 08:27:48;;;;;;;0.00;0.00;;;;;;;-145.06;100.00;54931.44;10435360;28;20021;-71
2024/01/07 08:32:48;;;;;;;0.00;0.00;;;;;;;-145.06;100.00;54921.28;10452973;28;20484;-71
2024/01/07 08:37:49;;;;;;;0.08;0.08;;;;;;;-145.06;100.00;54937.50;10455641;28;20418;-71
2024/01/07 08:42:49;;;;;;;0.10;0.10;;;;;;;-145.06;100.00;54937.50;10452674;28;20027;-71
2024/01/07 08:47:50;;;;;;;0.10;0.10;;;;;;;-145.06;100.00;54921.28;10451998;28;20025;-71
2024/01/07 08:52:50;;;;;;;0.00;0.00;;;;;;;-145.06;100.00;54933.44;10452490;28;20017;-71
2024/01/07 08:57:51;;;;;;;0.08;0.08;;;;;;;-145.06;100.00;54943.59;10452000;28;20043;-71
2024/01/07 09:02:52;;;;;;;0.10;0.10;;;;;;;-145.06;100.00;54743.03;10454577;28;20278;-71
2024/01/07 09:07:52;;;;;;;0.00;0.00;;;;;;;-145.06;98.53;54708.59;10451738;28;20020;-71
2024/01/07 09:12:53;;;;;;;0.10;0.10;;;;;;;-145.06;93.58;54720.75;10451145;28;20548;-71
2024/01/07 09:17:54;;;;;;;0.00;0.00;;;;;;;-145.06;91.45;54720.75;10451470;28;20256;-71
2024/01/07 09:22:54;;;;;;;0.05;0.05;;;;;;;-145.06;90.03;54739.00;10451558;28;20060;-71
2024/01/07 09:27:54;;;;;;;0.00;0.00;;;;;;;-145.06;88.64;54736.97;10451159;28;20028;-71
2024/01/07 09:32:54;;;;;;;0.00;0.00;;;;;;;-145.06;88.42;54718.72;10432583;28;20021;-71
2024/01/07 09:37:55;;;;;;;0.00;0.00;;;;;;;-145.06;87.72;54795.72;10450840;28;20013;-71
2024/01/07 09:42:55;;;;;;;0.00;0.00;;;;;;;-145.06;88.51;54773.44;10450373;28;20020;-71
2024/01/07 09:47:56;;;;;;;0.00;0.00;;;;;;;-145.06;90.56;54787.59;10453036;28;20028;-71
2024/01/07 09:53:01;;;;;;;0.10;0.10;;;;;;;-145.06;92.12;54807.88;10449969;28;20021;-71
2024/01/07 09:58:02;;;;;;;0.05;0.05;;;;;;;-145.06;93.58;54820.00;10449617;28;20796;-71
2024/01/07 10:03:02;;;;;;;0.00;0.00;;;;;;;-145.06;95.41;54848.38;10449281;28;20112;-71
2024/01/07 10:08:03;;;;;;;0.08;0.08;;;;;;;-145.06;95.46;54854.44;10449647;28;20021;-71
2024/01/07 10:13:03;;;;;;;0.00;0.00;;;;;;;-145.06;95.54;54870.66;10449800;28;20025;-71
2024/01/07 10:18:06;;;;;;;0.00;0.00;;;;;;;-145.06;95.67;54870.66;10451561;28;20443;-71
2024/01/07 10:23:07;;;;;;;0.00;0.00;;;;;;;-145.06;96.04;54888.88;10448998;28;20516;-71
2024/01/07 10:28:08;;;;;;;0.00;0.00;;;;;;;-145.06;96.33;54903.06;10448103;28;20013;-71
2024/01/07 10:33:08;;;;;;;0.00;0.00;;;;;;;-145.06;96.96;54874.72;10448761;28;20013;-71
2024/01/07 10:38:08;;;;;;;0.00;0.00;;;;;;;-145.06;97.27;54907.13;10447052;28;20042;-71
2024/01/07 10:43:09;;;;;;;0.00;0.00;;;;;;;-145.06;97.41;54921.28;10448965;28;20057;-71
2024/01/07 10:48:10;;;;;;;0.10;0.10;;;;;;;-145.06;97.92;54903.06;10448350;28;20307;-71
2024/01/07 10:53:17;;;;;;;0.00;0.00;;;;;;;-145.06;97.84;54886.88;10449609;28;20260;-71
2024/01/07 10:58:19;;;;;;;0.00;0.00;;;;;;;-145.06;97.83;54876.72;10447324;28;20066;-71
2024/01/07 11:03:30;;;;;;;0.05;0.05;;;;;;;-145.06;97.76;54921.28;10448233;28;20108;-71
2024/01/07 11:08:38;;;;;;;0.00;0.00;;;;;;;-145.06;96.69;54901.03;10447864;28;20112;-71
2024/01/07 11:13:39;;;;;;;0.00;0.00;;;;;;;-145.06;96.92;54939.53;10448616;28;20044;-71
2024/01/07 11:18:45;;;;;;;0.08;0.08;;;;;;;-145.06;96.56;54939.53;10431998;28;20043;-71
2024/01/07 11:23:46;;;;;;;0.00;0.00;;;;;;;-145.06;97.46;54925.34;10429236;28;20021;-71
2024/01/07 11:28:55;;;;;;;0.00;0.00;;;;;;;-145.06;96.81;54945.59;10430123;28;20029;-71
2024/01/07 11:33:56;;;;;;;0.20;0.20;;;;;;;-145.06;96.98;54929.41;10449884;28;20021;-71
2024/01/07 11:38:57;;;;;;;0.05;0.05;;;;;;;-145.06;95.83;54923.31;10431821;28;20017;-70
2024/01/07 11:44:02;;;;;;;0.00;0.00;;;;;;;-145.06;95.38;54945.59;10455157;28;20024;-71
2024/01/07 11:49:03;;;;;;;0.10;0.10;;;;;;;-145.06;93.88;54949.66;10456395;28;20399;-71
2024/01/07 11:54:05;;;;;;;0.05;0.05;;;;;;;-145.06;92.36;54945.59;10454910;28;20021;-71
2024/01/07 11:59:06;;;;;;;0.00;0.00;;;;;;;-145.06;90.91;54978.03;10453729;28;20051;-71
2024/01/07 12:04:07;;;;;;;0.00;0.00;;;;;;;-145.06;88.66;54941.56;10453852;28;20029;-71
2024/01/07 12:09:12;;;;;;;0.10;0.10;;;;;;;-145.06;87.23;54967.88;10454729;28;20063;-71
2024/01/07 12:14:13;;;;;;;0.00;0.00;;;;;;;-145.06;86.50;54965.88;10454496;28;20068;-70
2024/01/07 12:19:13;;;;;;;0.00;0.00;;;;;;;-145.06;85.58;54973.97;10454869;28;20016;-71
2024/01/07 12:24:14;;;;;;;0.00;0.00;;;;;;;-145.06;84.86;54996.25;10453690;28;20443;-70
2024/01/07 12:29:14;;;;;;;0.00;0.00;;;;;;;-145.06;84.72;54996.25;10454846;28;20108;-70
2024/01/07 12:34:15;;;;;;;0.00;0.00;;;;;;;-145.06;85.84;54965.88;10454410;28;20465;-70
2024/01/07 12:39:15;;;;;;;0.00;0.00;;;;;;;-145.06;86.90;54973.97;10453096;28;20025;-70
2024/01/07 12:44:15;;;;;;;0.13;0.13;;;;;;;-145.06;86.31;54961.81;10455074;28;20328;-70
2024/01/07 12:49:15;;;;;;;0.00;0.00;;;;;;;-145.06;83.55;55018.53;10452765;28;20057;-70
2024/01/07 12:54:16;;;;;;;0.10;0.10;;;;;;;-145.06;79.76;55016.50;10451990;28;20352;-70
2024/01/07 12:59:16;;;;;;;0.00;0.00;;;;;;;-145.06;77.40;55014.47;10452349;28;20017;-69
2024/01/07 13:04:17;;;;;;;0.10;0.10;;;;;;;-145.06;75.17;55040.81;10453993;28;20029;-69
2024/01/07 13:09:17;;;;;;;0.15;0.15;;;;;;;-145.06;73.40;55075.25;10452536;28;20032;-71
2024/01/07 13:14:18;;;;;;;0.00;0.00;;;;;;;-145.06;72.59;55050.94;10452010;28;20032;-69
2024/01/07 13:19:18;;;;;;;0.03;0.03;;;;;;;-145.06;73.96;55026.63;10452831;28;20252;-70
2024/01/07 13:24:19;;;;;;;0.00;0.00;;;;;;;-145.06;73.62;55079.31;10451533;28;20259;-70
2024/01/07 13:29:19;;;;;;;0.10;0.10;;;;;;;-145.06;74.92;55085.38;10452543;28;20017;-71
2024/01/07 13:34:19;;;;;;;0.00;0.00;;;;;;;-145.06;76.68;55059.03;10450849;28;20059;-71
2024/01/07 13:39:21;;;;;;;0.10;0.10;;;;;;;-145.06;78.86;55052.97;10450880;28;20012;-70
2024/01/07 13:44:21;;;;;;;0.10;0.10;;;;;;;-145.06;80.70;55036.75;10451039;28;20103;-71
2024/01/07 13:49:22;;;;;;;0.00;0.00;;;;;;;-145.06;82.10;55044.88;10453732;28;20043;-71
2024/01/07 13:54:22;;;;;;;0.10;0.10;;;;;;;-145.06;83.22;55067.16;10450052;28;20017;-71
2024/01/07 13:59:23;;;;;;;0.10;0.10;;;;;;;-145.06;84.17;55091.47;10450371;28;20027;-71
2024/01/07 14:04:24;;;;;;;0.10;0.10;;;;;;;-145.06;83.94;55063.09;10448911;28;20020;-71
2024/01/07 14:09:25;;;;;;;0.00;0.00;;;;;;;-145.06;85.10;55038.78;10451202;28;20024;-71
2024/01/07 14:14:26;;;;;;;0.03;0.03;;;;;;;-145.06;85.72;54992.19;10450047;28;20036;-70
2024/01/07 14:19:26;;;;;;;0.00;0.00;;;;;;;-145.06;86.00;55071.19;10449331;28;20049;-71
2024/01/07 14:24:26;;;;;;;0.10;0.10;;;;;;;-145.06;87.26;55073.22;10449839;28;20531;-70
2024/01/07 14:29:26;;;;;;;0.10;0.10;;;;;;;-145.06;87.08;55052.97;10432823;28;20390;-70
2024/01/07 14:34:27;;;;;;;0.10;0.10;;;;;;;-145.06;87.18;55044.88;10449809;28;20428;-71
2024/01/07 14:39:27;;;;;;;0.10;0.10;;;;;;;-145.06;86.66;55075.25;10449423;28;20013;-71
2024/01/07 14:44:27;;;;;;;0.00;0.00;;;;;;;-145.06;86.75;55057.03;10448676;28;20545;-71
2024/01/07 14:49:28;;;;;;;0.00;0.00;;;;;;;-145.06;87.02;55059.03;10449359;28;20350;-71
2024/01/07 14:54:31;;;;;;;0.10;0.10;;;;;;;-145.06;87.92;55061.06;10448231;28;20079;-71
2024/01/07 14:59:31;;;;;;;0.10;0.10;;;;;;;-145.06;87.43;55061.06;10448949;28;20009;-71
2024/01/07 15:04:31;;;;;;;0.10;0.10;;;;;;;-145.06;87.54;55075.25;10431316;28;20021;-70
2024/01/07 15:09:32;;;;;;;0.10;0.10;;;;;;;-145.06;87.77;55063.09;10448313;28;20018;-71
2024/01/07 15:14:32;;;;;;;0.10;0.10;;;;;;;-145.06;85.87;55050.94;10451258;28;20350;-71
2024/01/07 15:19:32;;;;;;;0.10;0.10;;;;;;;-145.06;87.44;55059.03;10438221;28;20020;-71
2024/01/07 15:24:33;;;;;;;0.07;0.07;;;;;;;-145.06;87.71;55050.94;10456470;28;20482;-71
2024/01/07 15:29:33;;;;;;;0.00;0.00;;;;;;;-145.06;88.16;55050.94;10456287;28;20285;-71
2024/01/07 15:34:33;;;;;;;0.00;0.00;;;;;;;-145.06;87.63;55059.03;10458804;28;20017;-71
2024/01/07 15:39:34;;;;;;;0.20;0.20;;;;;;;-145.06;87.13;55046.91;10455672;28;20256;-70
2024/01/07 15:44:35;;;;;;;0.10;0.10;;;;;;;-145.06;87.48;55028.66;10455317;28;20036;-71
2024/01/07 15:49:35;;;;;;;0.00;0.00;;;;;;;-145.06;87.68;55046.91;10455698;28;20390;-71
2024/01/07 15:54:36;;;;;;;0.10;0.10;;;;;;;-145.06;86.80;55030.69;10454780;28;20511;-71
2024/01/07 15:59:41;;;;;;;0.00;0.00;;;;;;;-145.06;86.32;55111.72;10454815;28;20013;-70
2024/01/07 16:04:41;;;;;;;0.10;0.10;;;;;;;-145.06;88.17;55018.53;10453478;28;20033;-71
2024/01/07 16:09:41;;;;;;;0.10;0.10;;;;;;;-145.06;86.43;55055.00;10457237;28;20363;-71
2024/01/07 16:14:42;;;;;;;0.10;0.10;;;;;;;-145.06;86.31;55040.81;10454448;28;20379;-71
2024/01/07 16:19:43;;;;;;;0.00;0.00;;;;;;;-145.06;86.49;55036.75;10453765;28;20389;-71
2024/01/07 16:24:43;;;;;;;0.10;0.10;;;;;;;-145.06;85.43;55048.91;10452572;28;20017;-71
2024/01/07 16:29:43;;;;;;;0.05;0.05;;;;;;;-145.06;85.39;55063.09;10454941;28;20279;-71
2024/01/07 16:34:44;;;;;;;0.10;0.10;;;;;;;-145.06;85.26;55032.72;10453016;28;20104;-71
2024/01/07 16:39:44;;;;;;;0.00;0.00;;;;;;;-145.06;83.12;55071.19;10453353;28;20255;-71
2024/01/07 16:44:44;;;;;;;0.05;0.05;;;;;;;-145.06;83.96;55079.31;10455262;28;20017;-70
2024/01/07 16:49:44;;;;;;;0.10;0.10;;;;;;;-145.06;80.78;55087.41;10452735;28;20474;-70
2024/01/07 16:54:46;;;;;;;0.15;0.15;;;;;;;-145.06;80.26;55095.50;10456382;28;20494;-70
2024/01/07 16:59:47;;;;;;;0.17;0.17;;;;;;;-145.06;81.08;55093.47;10452077;28;20021;-70
2024/01/07 17:04:47;;;;;;;0.10;0.10;;;;;;;-145.06;81.04;55127.94;10452075;28;20084;-70
2024/01/07 17:09:47;;;;;;;0.10;0.10;;;;;;;-145.06;81.26;55109.69;10437274;28;20549;-70
2024/01/07 17:14:51;;;;;;;0.03;0.03;;;;;;;-145.06;81.40;55075.25;10434246;28;20271;-70
2024/01/07 17:19:51;;;;;;;0.00;0.00;;;;;;;-145.06;80.96;55065.13;10453089;28;20013;-70
2024/01/07 17:24:52;;;;;;;0.15;0.15;;;;;;;-145.06;80.38;55063.09;10454097;28;20462;-70
2024/01/07 17:29:52;;;;;;;0.10;0.10;;;;;;;-145.06;79.54;55109.69;10433456;28;20046;-70
2024/01/07 17:34:54;;;;;;;0.10;0.10;;;;;;;-145.06;78.61;55093.47;10451136;28;20272;-70
2024/01/07 17:39:54;;;;;;;0.10;0.10;;;;;;;-145.06;78.10;55105.63;10450821;28;20267;-70
2024/01/07 17:44:54;;;;;;;0.10;0.10;;;;;;;-145.06;74.80;55111.72;10451224;28;20424;-70
2024/01/07 17:49:55;;;;;;;0.00;0.00;;;;;;;-145.06;75.40;55087.41;10450079;28;20025;-70
2024/01/07 17:54:56;;;;;;;0.10;0.10;;;;;;;-145.06;75.73;55059.03;10450265;28;20350;-70
2024/01/07 18:00:01;;;;;;;0.10;0.10;;;;;;;-145.06;76.34;55081.34;10449397;28;20070;-70
2024/01/07 18:05:01;;;;;;;0.10;0.10;;;;;;;-145.06;78.19;55059.03;10449694;28;20032;-70
2024/01/07 18:10:01;;;;;;;0.17;0.17;;;;;;;-145.06;81.02;55067.16;10449955;28;20035;-70
2024/01/07 18:15:02;;;;;;;0.10;0.10;;;;;;;-145.06;82.84;55087.41;10449679;28;20099;-70
2024/01/07 18:20:03;;;;;;;0.00;0.00;;;;;;;-145.06;84.36;55069.19;10450277;28;20024;-71
2024/01/07 18:25:03;;;;;;;0.00;0.00;;;;;;;-145.06;84.38;55063.09;10448987;28;20033;-70
2024/01/07 18:30:04;;;;;;;0.10;0.10;;;;;;;-145.06;83.47;55079.31;10449786;28;20053;-70
2024/01/07 18:35:05;;;;;;;0.10;0.10;;;;;;;-145.06;84.09;55071.19;10449407;28;20036;-70
2024/01/07 18:40:09;;;;;;;0.10;0.10;;;;;;;-145.06;85.39;55063.09;10449430;28;20386;-70
2024/01/07 18:45:09;;;;;;;0.00;0.00;;;;;;;-145.06;84.02;55107.66;10428632;28;20398;-70
2024/01/07 18:50:10;;;;;;;0.10;0.10;;;;;;;-145.06;84.27;55125.91;10434748;28;20543;-70
2024/01/07 18:55:12;;;;;;;0.10;0.10;;;;;;;-145.06;85.07;55123.88;10457024;28;20024;-70
2024/01/07 19:00:12;;;;;;;0.10;0.10;;;;;;;-145.06;85.73;55103.63;10456489;28;20021;-70
2024/01/07 19:05:13;;;;;;;0.10;0.10;;;;;;;-145.06;86.64;55140.06;10457990;28;20458;-70
2024/01/07 19:10:13;;;;;;;0.10;0.10;;;;;;;-145.06;87.78;55093.47;10456935;28;20021;-70
2024/01/07 19:15:14;;;;;;;0.03;0.03;;;;;;;-145.06;88.98;55152.22;10456264;28;20020;-70
2024/01/07 19:20:15;;;;;;;0.10;0.10;;;;;;;-145.06;89.67;55164.38;10439580;28;20029;-70
2024/01/07 19:25:16;;;;;;;0.00;0.00;;;;;;;-145.06;90.64;55119.81;10458978;28;20607;-70
2024/01/07 19:30:17;;;;;;;0.10;0.10;;;;;;;-145.06;90.92;55121.84;10457690;28;20108;-69
2024/01/07 19:35:18;;;;;;;0.10;0.10;;;;;;;-145.06;91.77;55136.03;10456551;28;20024;-70
2024/01/07 19:40:18;;;;;;;0.10;0.10;;;;;;;-145.06;92.10;55109.69;10455138;28;20025;-70
2024/01/07 19:45:19;;;;;;;0.15;0.15;;;;;;;-145.06;91.51;55103.63;10455260;28;20447;-70
2024/01/07 19:50:19;;;;;;;0.00;0.00;;;;;;;-145.06;91.93;55119.81;10441028;28;20024;-70
2024/01/07 19:55:19;;;;;;;0.13;0.13;;;;;;;-145.06;92.44;55146.16;10454943;28;20020;-71
2024/01/07 20:00:20;;;;;;;0.10;0.10;;;;;;;-145.06;92.84;55111.72;10453680;28;20028;-70
2024/01/07 20:05:20;;;;;;;0.10;0.10;;;;;;;-145.06;93.46;55111.72;10454772;28;20832;-70
2024/01/07 20:10:20;;;;;;;0.13;0.13;;;;;;;-145.06;93.54;55111.72;10462003;28;20474;-70
2024/01/07 20:15:20;;;;;;;0.28;0.28;;;;;;;-145.06;93.89;55131.97;10457921;28;20354;-70
2024/01/07 20:20:21;;;;;;;0.10;0.10;;;;;;;-145.06;93.94;55095.50;10458836;28;20055;-70
2024/01/07 20:25:21;;;;;;;0.10;0.10;;;;;;;-145.06;93.79;55097.53;10458783;28;20100;-70
2024/01/07 20:30:21;;;;;;;0.20;0.20;;;;;;;-145.06;93.99;55087.41;10456931;28;20013;-70
2024/01/07 20:35:21;;;;;;;0.03;0.03;;;;;;;-145.06;94.75;55097.53;10438783;28;20071;-70
2024/01/07 20:40:22;;;;;;;0.10;0.10;;;;;;;-145.06;93.68;55087.41;10453191;28;20123;-70
2024/01/07 20:45:25;;;;;;;0.10;0.10;;;;;;;-145.06;94.93;55057.03;10455598;28;20605;-70
2024/01/07 20:50:26;;;;;;;0.03;0.03;;;;;;;-145.06;94.91;55075.25;10452843;28;20021;-70
2024/01/07 20:55:27;;;;;;;0.03;0.03;;;;;;;-145.06;96.17;55103.63;10455770;28;20032;-70
2024/01/07 21:00:27;;;;;;;0.15;0.15;;;;;;;-145.06;96.93;55059.03;10452519;28;20486;-70
2024/01/07 21:05:28;;;;;;;0.20;0.20;;;;;;;-145.06;96.96;55099.56;10451882;28;20032;-70
2024/01/07 21:10:29;;;;;;;0.20;0.20;;;;;;;-145.06;97.12;55057.03;10451980;28;20107;-70
2024/01/07 21:15:29;;;;;;;0.10;0.10;;;;;;;-145.06;98.28;55083.34;10451491;28;20024;-70
2024/01/07 21:20:31;;;;;;;0.20;0.20;;;;;;;-145.06;98.68;55063.09;10454256;28;20039;-70
2024/01/07 21:25:32;;;;;;;0.20;0.20;;;;;;;-145.06;98.61;55059.03;10449371;28;20025;-70
2024/01/07 21:30:33;;;;;;;0.00;0.00;;;;;;;-145.06;99.17;55071.19;10450793;28;20471;-70
2024/01/07 21:35:33;;;;;;;0.10;0.10;;;;;;;-145.06;100.00;55061.06;10451732;28;20021;-70
2024/01/07 21:40:33;;;;;;;0.10;0.10;;;;;;;-145.06;100.00;55067.16;10450936;28;20466;-70
2024/01/07 21:45:34;;;;;;;0.10;0.10;;;;;;;-145.06;100.00;55038.78;10450072;28;20275;-70
2024/01/07 21:50:34;;;;;;;0.10;0.10;;;;;;;-145.06;100.00;55057.03;10450504;28;20017;-70
2024/01/07 21:55:37;;;;;;;0.10;0.10;;;;;;;-145.06;100.00;55061.06;10450048;28;20017;-70
2024/01/07 22:00:37;;;;;;;0.10;0.10;;;;;;;-145.06;100.00;55044.88;10451149;28;20027;-70
2024/01/07 22:05:37;;;;;;;0.10;0.10;;;;;;;-145.06;100.00;55042.84;10450168;28;20032;-70
2024/01/07 22:10:38;;;;;;;0.10;0.10;;;;;;;-145.06;100.00;55048.91;10431598;28;20025;-71
2024/01/07 22:15:38;;;;;;;0.20;0.20;;;;;;;-145.06;100.00;55063.09;10449742;28;20062;-70
2024/01/07 22:20:39;;;;;;;0.30;0.30;;;;;;;-145.06;100.00;55010.44;10449200;28;20040;-70
2024/01/07 22:25:39;;;;;;;0.10;0.10;;;;;;;-145.06;100.00;55020.56;10447784;28;20031;-70
2024/01/07 22:30:40;;;;;;;0.10;0.10;;;;;;;-145.06;100.00;55061.06;10448799;28;20013;-70
2024/01/07 22:35:41;;;;;;;0.20;0.20;;;;;;;-145.06;100.00;55042.84;10450984;28;20414;-70
2024/01/07 22:40:42;;;;;;;0.10;0.10;;;;;;;-145.06;100.00;55024.59;10449483;28;20108;-70